Time;durP1;ratioP1;P1;durP2;ratioP2;P2;SDS_P1;SDS_P2;PMS_P1;PMS_P2;Temp;Humidity;BMP_temperature;BMP_pressure;BME280_temperature;BME280_humidity;BME280_pressure;Samples;Min_cycle;Max_cycle;Signal;HPM_P1;HPM_P2
2021/01/16 00:03:40;;;;;;;0.98;0.40;;;8.00;56.70;;;;;;20781525;28;20099;-78
2021/01/16 00:13:44;;;;;;;0.85;0.35;;;8.00;56.70;;;;;;20748611;28;20407;-79
2021/01/16 00:23:46;;;;;;;0.85;0.52;;;7.90;56.50;;;;;;20772343;28;20116;-78
2021/01/16 00:33:51;;;;;;;0.85;0.40;;;8.00;56.50;;;;;;20764039;28;20079;-79
2021/01/16 00:43:53;;;;;;;1.10;0.70;;;7.90;56.30;;;;;;20809179;28;20138;-79
2021/01/16 00:53:53;;;;;;;1.52;0.30;;;7.90;56.20;;;;;;20774255;28;20050;-78
2021/01/16 01:03:58;;;;;;;0.52;0.32;;;7.90;56.20;;;;;;20755076;28;20057;-79
2021/01/16 01:14:00;;;;;;;0.65;0.32;;;7.90;56.10;;;;;;20785043;28;20456;-78
2021/01/16 01:24:05;;;;;;;0.43;0.30;;;7.90;56.00;;;;;;20760820;28;20124;-78
2021/01/16 01:34:11;;;;;;;0.70;0.40;;;7.90;56.00;;;;;;20750740;28;20037;-79
2021/01/16 01:44:13;;;;;;;0.95;0.55;;;7.90;55.90;;;;;;20768748;28;20084;-78
2021/01/16 01:54:17;;;;;;;0.43;0.38;;;7.90;55.90;;;;;;20771467;28;20373;-79
2021/01/16 02:04:18;;;;;;;0.65;0.43;;;7.90;55.90;;;;;;20810393;28;20057;-78
2021/01/16 02:14:27;;;;;;;0.28;0.28;;;7.90;56.00;;;;;;20765453;28;20046;-79
2021/01/16 02:24:31;;;;;;;2.47;0.47;;;7.90;56.60;;;;;;20776263;28;20038;-79
2021/01/16 02:34:35;;;;;;;0.40;0.40;;;7.90;56.00;;;;;;20762336;28;20042;-79
2021/01/16 02:44:39;;;;;;;0.50;0.50;;;7.90;56.10;;;;;;20775263;28;20037;-79
2021/01/16 02:55:01;;;;;;;1.17;0.40;;;7.90;56.10;;;;;;20792174;28;20045;-79
2021/01/16 03:05:06;;;;;;;1.17;0.70;;;7.90;56.10;;;;;;20763734;28;20428;-79
2021/01/16 03:15:35;;;;;;;0.55;0.55;;;7.90;56.10;;;;;;20755815;28;20037;-80
2021/01/16 03:25:37;;;;;;;1.10;0.77;;;7.90;56.00;;;;;;20783971;28;20038;-79
2021/01/16 03:35:41;;;;;;;0.30;0.30;;;7.80;56.00;;;;;;20772059;28;20404;-79
2021/01/16 03:45:42;;;;;;;0.33;0.23;;;7.90;56.00;;;;;;20774345;28;20036;-79
2021/01/16 03:55:44;;;;;;;0.75;0.47;;;7.90;55.90;;;;;;20775667;28;20346;-80
2021/01/16 04:05:49;;;;;;;0.75;0.38;;;7.80;55.90;;;;;;20787595;28;20030;-80
2021/01/16 04:15:53;;;;;;;0.40;0.30;;;7.80;55.90;;;;;;20768175;28;20147;-80
2021/01/16 04:25:56;;;;;;;0.20;0.20;;;7.90;56.00;;;;;;20782103;28;20103;-80
2021/01/16 04:35:56;;;;;;;0.38;0.38;;;7.80;56.00;;;;;;20757371;28;20038;-79
2021/01/16 04:46:05;;;;;;;0.73;0.70;;;7.80;56.00;;;;;;20766588;28;20443;-80
2021/01/16 04:56:06;;;;;;;0.40;0.20;;;7.80;56.00;;;;;;20779987;28;20056;-80
2021/01/16 05:06:13;;;;;;;1.50;0.35;;;7.80;55.90;;;;;;20783260;28;20085;-80
2021/01/16 05:16:16;;;;;;;0.73;0.50;;;7.80;56.00;;;;;;20788768;28;20037;-81
2021/01/16 05:26:19;;;;;;;0.22;0.22;;;7.90;56.20;;;;;;20764687;28;20076;-80
2021/01/16 05:36:20;;;;;;;0.98;0.47;;;8.20;56.10;;;;;;20777923;28;20041;-81
2021/01/16 05:46:32;;;;;;;0.52;0.40;;;8.50;55.40;;;;;;20793489;28;20088;-80
2021/01/16 05:56:39;;;;;;;1.70;0.98;;;8.70;54.50;;;;;;20766336;28;20395;-81
2021/01/16 06:06:47;;;;;;;0.20;0.20;;;8.80;53.70;;;;;;20797142;28;20065;-81
2021/01/16 06:16:58;;;;;;;0.40;0.38;;;8.90;53.30;;;;;;20759302;28;20053;-81
2021/01/16 06:27:00;;;;;;;2.05;1.33;;;8.80;52.50;;;;;;20765077;28;20384;-79
2021/01/16 06:37:14;;;;;;;0.55;0.50;;;8.60;52.30;;;;;;20753119;28;20034;-80
2021/01/16 06:47:19;;;;;;;0.28;0.28;;;8.40;52.30;;;;;;20757868;28;20101;-80
2021/01/16 06:57:23;;;;;;;0.55;0.32;;;8.30;52.50;;;;;;20776672;28;20491;-80
2021/01/16 07:07:48;;;;;;;0.25;0.25;;;8.20;52.80;;;;;;20781729;28;20033;-80
2021/01/16 07:17:53;;;;;;;1.40;0.70;;;8.20;53.00;;;;;;20787207;28;20037;-82
2021/01/16 07:28:04;;;;;;;0.53;0.33;;;8.10;53.10;;;;;;20766276;28;20041;-82
2021/01/16 07:38:06;;;;;;;0.43;0.40;;;8.10;53.30;;;;;;20771168;28;20095;-81
2021/01/16 07:48:07;;;;;;;1.10;0.52;;;8.10;53.50;;;;;;20764551;28;20576;-76
2021/01/16 07:58:23;;;;;;;0.45;0.45;;;8.00;54.10;;;;;;20771206;28;20044;-74
2021/01/16 08:08:32;;;;;;;0.65;0.52;;;8.00;53.50;;;;;;20765074;28;20037;-74
2021/01/16 08:18:33;;;;;;;0.10;0.10;;;8.00;53.60;;;;;;20747219;28;20050;-74
2021/01/16 08:28:34;;;;;;;0.30;0.30;;;8.00;53.60;;;;;;20794806;28;20041;-74
2021/01/16 08:38:34;;;;;;;0.43;0.43;;;8.00;53.60;;;;;;20771392;28;20160;-76
2021/01/16 08:48:37;;;;;;;1.77;0.60;;;8.00;53.60;;;;;;20830512;28;20036;-75
2021/01/16 08:58:42;;;;;;;4.40;0.43;;;8.00;53.60;;;;;;20775854;28;20496;-82
2021/01/16 09:08:50;;;;;;;0.90;0.17;;;8.00;53.70;;;;;;20803011;28;20488;-84
2021/01/16 09:18:55;;;;;;;0.70;0.60;;;8.20;54.10;;;;;;20799660;28;20545;-78
2021/01/16 09:29:04;;;;;;;0.20;0.20;;;8.40;53.70;;;;;;21231499;22;20040;-80
2021/01/16 09:39:16;;;;;;;1.05;0.22;;;8.70;53.20;;;;;;20881992;28;20064;-78
2021/01/16 09:49:16;;;;;;;0.73;0.70;;;8.60;52.40;;;;;;20865264;28;20056;-77
2021/01/16 09:59:24;;;;;;;1.63;0.85;;;8.50;52.20;;;;;;20853255;28;20557;-79
2021/01/16 10:09:25;;;;;;;2.10;0.63;;;8.40;52.20;;;;;;20866848;28;20033;-79
2021/01/16 10:19:26;;;;;;;0.57;0.32;;;8.30;52.30;;;;;;20866386;28;20065;-78
2021/01/16 10:29:36;;;;;;;0.10;0.10;;;8.20;52.60;;;;;;20825750;28;20052;-79
2021/01/16 10:39:40;;;;;;;1.75;0.70;;;8.20;52.80;;;;;;20836759;28;20051;-74
2021/01/16 10:49:50;;;;;;;1.48;0.32;;;8.10;52.90;;;;;;20858058;28;20044;-79
2021/01/16 10:59:54;;;;;;;1.23;0.63;;;8.10;53.10;;;;;;20853820;28;20033;-79
2021/01/16 11:10:14;;;;;;;0.47;0.43;;;8.10;53.20;;;;;;20846463;28;20046;-75
2021/01/16 11:20:19;;;;;;;2.95;1.27;;;8.10;53.20;;;;;;20892844;28;20033;-77
2021/01/16 11:30:21;;;;;;;2.65;0.80;;;8.10;53.20;;;;;;20871977;28;20037;-78
2021/01/16 11:40:36;;;;;;;2.95;1.10;;;7.90;52.50;;;;;;20846752;28;20071;-74
2021/01/16 11:50:38;;;;;;;1.70;1.15;;;7.90;52.30;;;;;;20866214;28;20051;-74
2021/01/16 12:00:38;;;;;;;0.68;0.45;;;8.00;52.30;;;;;;20827036;28;20036;-71
2021/01/16 12:10:40;;;;;;;2.30;1.05;;;8.00;52.30;;;;;;20868264;28;20040;-70
2021/01/16 12:20:41;;;;;;;0.70;0.63;;;8.00;52.40;;;;;;20867641;28;20545;-74
2021/01/16 12:30:48;;;;;;;3.20;0.95;;;8.00;52.60;;;;;;20835824;28;20040;-73
2021/01/16 12:40:49;;;;;;;;;;;8.00;52.50;;;;;;20858644;28;20384;-73
2021/01/16 12:50:50;;;;;;;0.47;0.35;;;8.00;52.60;;;;;;20845718;28;19921;-74
2021/01/16 13:00:52;;;;;;;0.90;0.55;;;8.00;52.70;;;;;;20862059;28;20071;-73
2021/01/16 13:10:54;;;;;;;0.38;0.38;;;8.00;52.70;;;;;;20869364;28;20123;-73
2021/01/16 13:20:56;;;;;;;1.58;0.88;;;8.00;52.70;;;;;;20858100;28;20040;-74
2021/01/16 13:31:00;;;;;;;1.40;0.82;;;7.90;52.70;;;;;;20877767;28;20041;-74
2021/01/16 13:41:03;;;;;;;0.85;0.63;;;7.90;52.70;;;;;;20857102;28;20028;-73
2021/01/16 13:51:26;;;;;;;2.30;0.85;;;7.90;52.70;;;;;;20865824;28;20730;-73
2021/01/16 14:01:32;;;;;;;0.93;0.40;;;8.00;52.80;;;;;;20873525;28;20043;-73
2021/01/16 14:11:43;;;;;;;1.35;0.60;;;7.90;52.90;;;;;;20867177;28;20045;-72
2021/01/16 14:21:55;;;;;;;1.17;0.40;;;8.00;53.30;;;;;;20832626;28;20032;-73
2021/01/16 14:31:58;;;;;;;0.35;0.25;;;8.30;53.50;;;;;;20837127;28;20127;-73
2021/01/16 14:41:59;;;;;;;0.25;0.25;;;8.50;53.20;;;;;;20852385;28;20025;-73
2021/01/16 14:52:10;;;;;;;1.42;0.90;;;8.70;52.70;;;;;;20841821;28;20100;-74
2021/01/16 15:02:16;;;;;;;0.50;0.35;;;8.90;52.30;;;;;;20856700;28;20076;-72
2021/01/16 15:12:18;;;;;;;1.88;0.55;;;8.70;51.50;;;;;;20853492;28;20478;-73
2021/01/16 15:22:19;;;;;;;1.40;0.60;;;8.60;51.60;;;;;;20887606;28;20070;-71
2021/01/16 15:32:22;;;;;;;2.45;0.70;;;8.40;51.70;;;;;;20866348;28;20380;-75
2021/01/16 15:42:25;;;;;;;0.68;0.68;;;8.30;52.70;;;;;;20844206;28;20079;-76
2021/01/16 15:52:27;;;;;;;0.22;0.22;;;8.20;52.50;;;;;;20854881;28;20120;-77
2021/01/16 16:02:38;;;;;;;0.70;0.50;;;8.20;52.80;;;;;;20831091;28;20146;-78
2021/01/16 16:12:41;;;;;;;2.10;0.52;;;8.10;53.10;;;;;;20861241;28;20041;-78
2021/01/16 16:22:42;;;;;;;0.50;0.38;;;8.10;53.30;;;;;;20845627;28;20150;-79
2021/01/16 16:32:46;;;;;;;1.13;0.75;;;8.10;53.50;;;;;;20885725;28;20136;-80
2021/01/16 16:42:47;;;;;;;2.53;1.17;;;8.10;53.60;;;;;;20843118;28;20060;-79
2021/01/16 16:52:49;;;;;;;0.75;0.40;;;8.10;53.80;;;;;;20842821;28;20045;-79
2021/01/16 17:02:51;;;;;;;1.60;0.88;;;8.20;53.60;;;;;;20889211;28;20518;-76
2021/01/16 17:12:56;;;;;;;0.60;0.47;;;8.20;53.60;;;;;;20881647;28;20021;-76
2021/01/16 17:22:57;;;;;;;0.50;0.40;;;8.10;53.70;;;;;;20838236;28;20045;-74
2021/01/16 17:32:58;;;;;;;1.48;0.57;;;8.10;53.80;;;;;;20836089;28;20390;-75
2021/01/16 17:42:59;;;;;;;2.50;0.40;;;8.10;53.90;;;;;;20845180;28;20045;-78
2021/01/16 17:53:00;;;;;;;0.75;0.22;;;8.10;54.00;;;;;;20834442;28;20037;-75
2021/01/16 18:03:01;;;;;;;0.60;0.30;;;8.00;54.10;;;;;;20862080;28;20416;-75
2021/01/16 18:13:04;;;;;;;1.90;0.63;;;8.10;54.20;;;;;;20870551;28;20540;-75
2021/01/16 18:23:06;;;;;;;1.20;0.47;;;8.00;54.00;;;;;;20888163;28;20124;-77
2021/01/16 18:33:07;;;;;;;0.65;0.30;;;8.00;54.30;;;;;;20857201;28;20032;-77
2021/01/16 18:43:07;;;;;;;2.33;0.57;;;7.90;54.20;;;;;;20823954;28;20041;-76
2021/01/16 18:53:14;;;;;;;0.60;0.60;;;8.00;54.20;;;;;;20873544;28;20028;-77
2021/01/16 19:03:15;;;;;;;0.20;0.20;;;8.00;55.00;;;;;;20883679;28;20064;-78
2021/01/16 19:13:16;;;;;;;1.50;0.63;;;8.00;54.40;;;;;;20864780;28;20052;-76
2021/01/16 19:23:18;;;;;;;0.60;0.40;;;8.00;54.40;;;;;;20889636;28;20040;-77
2021/01/16 19:33:21;;;;;;;1.45;0.38;;;7.90;54.30;;;;;;20852355;28;20079;-75
2021/01/16 19:43:22;;;;;;;0.63;0.30;;;7.90;54.50;;;;;;20844135;28;20418;-76
2021/01/16 19:53:24;;;;;;;1.20;0.63;;;7.90;54.40;;;;;;20872064;28;20064;-76
2021/01/16 20:03:26;;;;;;;0.40;0.40;;;7.90;54.50;;;;;;20875456;28;20040;-75
2021/01/16 20:13:28;;;;;;;1.02;0.77;;;7.90;54.50;;;;;;20864394;28;20484;-79
2021/01/16 20:23:29;;;;;;;0.77;0.57;;;7.90;54.60;;;;;;20881541;28;20036;-79
2021/01/16 20:33:29;;;;;;;0.73;0.57;;;7.90;54.60;;;;;;20850075;28;20045;-78
2021/01/16 20:43:30;;;;;;;1.27;0.40;;;7.90;54.60;;;;;;20873477;28;20109;-77
2021/01/16 20:53:32;;;;;;;1.75;0.77;;;7.90;54.70;;;;;;20872590;28;20041;-76
2021/01/16 21:03:37;;;;;;;2.05;0.90;;;7.90;54.70;;;;;;20835642;28;20083;-78
2021/01/16 21:13:37;;;;;;;0.95;0.47;;;7.90;54.80;;;;;;20863035;28;20049;-76
2021/01/16 21:23:40;;;;;;;0.95;0.70;;;7.80;54.80;;;;;;20885679;28;20076;-76
2021/01/16 21:33:41;;;;;;;1.38;1.15;;;7.90;54.90;;;;;;20855053;28;20029;-77
2021/01/16 21:43:47;;;;;;;1.52;0.77;;;7.80;54.80;;;;;;20834655;28;20123;-77
2021/01/16 21:53:49;;;;;;;1.65;0.88;;;7.80;54.90;;;;;;20876481;28;20095;-78
2021/01/16 22:03:54;;;;;;;2.15;1.02;;;7.90;54.90;;;;;;20868482;28;20040;-77
2021/01/16 22:13:54;;;;;;;2.78;0.82;;;7.80;54.90;;;;;;20891839;28;20041;-81
2021/01/16 22:23:55;;;;;;;1.15;0.75;;;7.80;54.90;;;;;;20890166;28;20051;-79
2021/01/16 22:33:56;;;;;;;2.47;1.00;;;7.80;54.90;;;;;;20859748;28;20041;-78
2021/01/16 22:43:59;;;;;;;1.80;0.80;;;7.80;54.90;;;;;;20868175;28;20831;-77
2021/01/16 22:54:01;;;;;;;1.42;0.70;;;7.80;54.90;;;;;;20859576;28;20364;-77
2021/01/16 23:04:03;;;;;;;0.85;0.70;;;7.80;55.00;;;;;;20834048;28;20047;-77
2021/01/16 23:14:04;;;;;;;1.65;0.75;;;7.80;54.90;;;;;;20862708;28;20483;-78
2021/01/16 23:24:05;;;;;;;2.80;1.40;;;7.80;54.90;;;;;;20843553;28;20036;-79
2021/01/16 23:34:06;;;;;;;2.20;0.93;;;7.80;54.80;;;;;;20836105;28;20035;-81
2021/01/16 23:44:07;;;;;;;1.90;1.15;;;7.80;54.90;;;;;;20867885;28;20033;-78
2021/01/16 23:54:07;;;;;;;1.48;0.90;;;7.80;54.80;;;;;;20843994;28;20045;-77
